createdAt,value
2022-07-29T00:00:02.238Z,58.23
2022-07-29T00:02:29.516Z,58.35
2022-07-29T00:04:56.827Z,58.22
2022-07-29T00:07:23.829Z,58.43
2022-07-29T00:09:52.631Z,58.29
2022-07-29T00:12:25.034Z,58.18
2022-07-29T00:14:54.014Z,58.28
2022-07-29T00:17:27.162Z,58.63
2022-07-29T00:19:54.149Z,58.72
2022-07-29T00:22:21.728Z,58.74
2022-07-29T00:24:49.787Z,58.49
2022-07-29T00:27:16.986Z,58.69
2022-07-29T00:29:44.065Z,59.08
2022-07-29T00:32:10.997Z,58.78
2022-07-29T00:34:56.844Z,58.88
2022-07-29T00:37:23.925Z,58.83
2022-07-29T00:39:53.792Z,58.80
2022-07-29T00:42:21.117Z,59.29
2022-07-29T00:44:48.073Z,59.01
2022-07-29T00:47:15.034Z,59.01
2022-07-29T00:49:45.681Z,58.94
2022-07-29T00:52:13.004Z,59.47
2022-07-29T00:54:44.768Z,59.20
2022-07-29T00:57:12.920Z,59.04
2022-07-29T00:59:40.102Z,59.13
2022-07-29T01:02:07.265Z,59.41
2022-07-29T01:04:34.290Z,59.24
2022-07-29T01:07:02.771Z,59.54
2022-07-29T01:09:37.289Z,59.93
2022-07-29T01:12:22.968Z,59.75
2022-07-29T01:14:50.995Z,59.82
2022-07-29T01:17:28.596Z,59.75
2022-07-29T01:20:16.869Z,59.48
2022-07-29T01:23:08.680Z,59.81
2022-07-29T01:26:02.869Z,59.42
2022-07-29T01:29:08.479Z,60.10
2022-07-29T01:31:59.749Z,60.15
2022-07-29T01:34:49.953Z,60.08
2022-07-29T01:37:24.888Z,60.33
2022-07-29T01:39:53.887Z,59.83
2022-07-29T01:42:26.666Z,60.43
2022-07-29T01:45:05.486Z,59.97
2022-07-29T01:47:38.705Z,60.03
2022-07-29T01:50:08.885Z,60.42
2022-07-29T01:52:48.421Z,59.93
2022-07-29T01:55:16.289Z,60.25
2022-07-29T01:57:48.046Z,60.54
2022-07-29T02:00:15.910Z,60.47
2022-07-29T02:02:46.780Z,60.51
2022-07-29T02:05:18.536Z,60.28
2022-07-29T02:07:46.067Z,60.45
2022-07-29T02:10:13.698Z,60.58
2022-07-29T02:12:40.893Z,59.92
2022-07-29T02:15:08.157Z,60.53
2022-07-29T02:17:45.104Z,60.72
2022-07-29T02:20:12.681Z,60.27
2022-07-29T02:22:40.877Z,60.84
2022-07-29T02:25:13.819Z,60.87
2022-07-29T02:27:44.093Z,61.03
2022-07-29T02:30:12.812Z,60.80
2022-07-29T02:32:40.731Z,60.79
2022-07-29T02:35:09.257Z,61.00
2022-07-29T02:37:37.734Z,60.61
2022-07-29T02:40:05.034Z,60.90
2022-07-29T02:42:32.004Z,60.98
2022-07-29T02:44:59.348Z,60.61
2022-07-29T02:47:41.951Z,60.90
2022-07-29T02:50:18.908Z,60.65
2022-07-29T02:52:48.966Z,60.44
2022-07-29T02:55:31.112Z,60.85
2022-07-29T02:58:07.261Z,60.70
2022-07-29T03:00:36.779Z,60.50
2022-07-29T03:03:05.724Z,60.59
2022-07-29T03:05:32.669Z,60.69
2022-07-29T03:08:05.738Z,60.74
2022-07-29T03:10:32.932Z,60.44
2022-07-29T03:13:00.007Z,61.14
2022-07-29T03:15:27.109Z,60.88
2022-07-29T03:17:54.099Z,60.74
2022-07-29T03:20:24.109Z,60.81
2022-07-29T03:22:54.455Z,61.10
2022-07-29T03:25:21.688Z,61.07
2022-07-29T03:27:49.207Z,60.87
2022-07-29T03:30:21.883Z,61.32
2022-07-29T03:32:51.828Z,61.53
2022-07-29T03:35:23.800Z,61.36
2022-07-29T03:37:53.612Z,61.48
2022-07-29T03:40:40.254Z,61.67
2022-07-29T03:43:07.570Z,61.48
2022-07-29T03:45:34.589Z,61.51
2022-07-29T03:48:10.317Z,61.72
2022-07-29T03:50:37.614Z,61.43
2022-07-29T03:53:04.669Z,61.92
2022-07-29T03:55:44.347Z,61.64
2022-07-29T03:58:15.117Z,61.60
2022-07-29T04:00:43.375Z,61.76
2022-07-29T04:03:11.837Z,62.06
2022-07-29T04:05:38.926Z,62.34
2022-07-29T04:08:06.349Z,62.26
2022-07-29T04:10:36.383Z,62.29
2022-07-29T04:13:03.443Z,62.88
2022-07-29T04:15:31.054Z,62.64
2022-07-29T04:17:59.806Z,62.63
2022-07-29T04:20:26.859Z,63.15
2022-07-29T04:22:53.989Z,63.13
2022-07-29T04:25:21.259Z,62.97
2022-07-29T04:28:03.287Z,62.91
2022-07-29T04:30:31.440Z,62.97
2022-07-29T04:32:58.413Z,62.96
2022-07-29T04:35:25.546Z,63.02
2022-07-29T04:37:52.734Z,62.97
2022-07-29T04:40:19.954Z,63.15
2022-07-29T04:42:48.058Z,62.85
2022-07-29T04:45:22.350Z,63.18
2022-07-29T04:47:50.060Z,62.94
2022-07-29T04:50:17.066Z,63.56
2022-07-29T04:52:44.034Z,63.58
2022-07-29T04:55:11.077Z,63.04
2022-07-29T04:57:38.242Z,63.61
2022-07-29T05:00:06.343Z,63.32
2022-07-29T05:02:33.480Z,63.35
2022-07-29T05:05:00.481Z,63.45
2022-07-29T05:07:27.466Z,63.63
2022-07-29T05:09:54.694Z,63.09
2022-07-29T05:12:21.684Z,63.08
2022-07-29T05:14:48.644Z,63.18
2022-07-29T05:17:16.223Z,63.18
2022-07-29T05:19:43.363Z,63.09
2022-07-29T05:22:10.343Z,62.98
2022-07-29T05:24:37.645Z,62.89
2022-07-29T05:27:04.861Z,63.05
2022-07-29T05:29:44.297Z,62.83
2022-07-29T05:32:13.819Z,62.70
2022-07-29T05:34:50.243Z,62.68
2022-07-29T05:37:20.133Z,62.15
2022-07-29T05:39:50.440Z,62.70
2022-07-29T05:42:24.609Z,62.35
2022-07-29T05:44:51.954Z,62.43
2022-07-29T05:47:18.892Z,62.20
2022-07-29T05:49:46.317Z,62.36
2022-07-29T05:52:14.521Z,62.13
2022-07-29T05:54:41.606Z,62.60
2022-07-29T05:57:08.855Z,62.54
2022-07-29T05:59:39.012Z,62.44
2022-07-29T06:02:08.687Z,62.11
2022-07-29T06:04:35.863Z,61.94
2022-07-29T06:07:03.030Z,62.38
2022-07-29T06:09:30.283Z,62.10
2022-07-29T06:11:57.353Z,61.96
2022-07-29T06:14:24.356Z,61.98
2022-07-29T06:16:51.348Z,61.96
2022-07-29T06:19:18.640Z,62.61
2022-07-29T06:21:46.429Z,62.35
2022-07-29T06:24:15.086Z,62.43
2022-07-29T06:26:43.204Z,62.09
2022-07-29T06:29:11.707Z,62.34
2022-07-29T06:31:39.012Z,62.47
2022-07-29T06:34:06.156Z,62.98
2022-07-29T06:36:36.090Z,63.06
2022-07-29T06:39:06.765Z,63.12
2022-07-29T06:41:34.768Z,63.21
2022-07-29T06:44:01.743Z,63.84
2022-07-29T06:46:29.363Z,64.34
2022-07-29T06:48:56.436Z,64.65
2022-07-29T06:51:24.096Z,64.88
2022-07-29T06:54:00.394Z,65.31
2022-07-29T06:56:38.437Z,65.38
2022-07-29T06:59:10.910Z,65.30
2022-07-29T07:01:39.113Z,65.49
2022-07-29T07:04:06.619Z,65.83
2022-07-29T07:06:33.535Z,66.09
2022-07-29T07:09:00.500Z,66.70
2022-07-29T07:11:27.568Z,66.65
2022-07-29T07:13:58.092Z,66.53
2022-07-29T07:16:27.912Z,66.44
2022-07-29T07:18:54.877Z,66.74
2022-07-29T07:21:21.907Z,66.56
2022-07-29T07:23:49.023Z,66.60
2022-07-29T07:26:16.228Z,66.52
2022-07-29T07:28:43.389Z,67.01
2022-07-29T07:31:10.742Z,66.94
2022-07-29T07:33:37.773Z,67.01
2022-07-29T07:36:04.868Z,66.14
2022-07-29T07:38:31.822Z,66.10
2022-07-29T07:40:59.881Z,66.49
2022-07-29T07:43:26.974Z,66.23
2022-07-29T07:45:53.990Z,65.99
2022-07-29T07:48:24.108Z,65.43
2022-07-29T07:50:54.185Z,65.38
2022-07-29T07:53:22.178Z,65.18
2022-07-29T07:58:36.410Z,64.57
2022-07-29T08:01:04.231Z,63.80
2022-07-29T08:03:31.319Z,63.59
2022-07-29T08:05:58.706Z,63.42
2022-07-29T08:08:25.802Z,63.32
2022-07-29T08:11:02.167Z,63.54
2022-07-29T08:13:33.049Z,63.30
2022-07-29T08:16:02.253Z,63.01
2022-07-29T08:18:31.912Z,62.85
2022-07-29T08:20:59.838Z,62.76
2022-07-29T08:23:32.877Z,62.77
2022-07-29T08:26:16.548Z,62.61
2022-07-29T08:28:47.067Z,62.39
2022-07-29T08:31:15.679Z,62.18
2022-07-29T08:33:43.684Z,61.85
2022-07-29T08:36:10.951Z,61.77
2022-07-29T08:38:38.041Z,61.71
2022-07-29T08:41:05.044Z,61.86
2022-07-29T08:43:33.275Z,61.74
2022-07-29T08:46:00.540Z,61.16
2022-07-29T08:48:27.558Z,61.44
2022-07-29T08:50:57.403Z,60.89
2022-07-29T08:53:28.105Z,61.11
2022-07-29T08:55:55.909Z,61.00
2022-07-29T08:58:24.748Z,60.82
2022-07-29T09:00:57.982Z,61.40
2022-07-29T09:03:27.337Z,61.21
2022-07-29T09:05:54.291Z,61.22
2022-07-29T09:08:21.353Z,61.33
2022-07-29T09:10:48.741Z,61.43
2022-07-29T09:13:15.981Z,61.02
2022-07-29T09:15:43.003Z,61.29
2022-07-29T09:18:30.310Z,61.04
2022-07-29T09:21:15.831Z,61.39
2022-07-29T09:24:03.303Z,61.12
2022-07-29T09:26:34.547Z,61.24
2022-07-29T09:29:02.678Z,61.07
2022-07-29T09:31:40.942Z,61.22
2022-07-29T09:34:08.617Z,60.91
2022-07-29T09:36:47.217Z,61.04
2022-07-29T09:39:17.771Z,60.96
2022-07-29T09:41:55.062Z,61.37
2022-07-29T09:44:23.106Z,61.49
2022-07-29T09:46:57.816Z,61.48
2022-07-29T09:49:26.009Z,61.16
2022-07-29T09:52:08.986Z,61.26
2022-07-29T09:54:39.992Z,60.97
2022-07-29T09:57:28.644Z,61.36
2022-07-29T10:00:16.066Z,60.96
2022-07-29T10:02:45.580Z,60.82
2022-07-29T10:05:26.437Z,60.93
2022-07-29T10:07:57.455Z,60.66
2022-07-29T10:10:32.659Z,60.89
2022-07-29T10:13:07.202Z,60.83
2022-07-29T10:15:40.182Z,60.68
2022-07-29T10:18:08.992Z,61.12
2022-07-29T10:20:36.699Z,60.77
2022-07-29T10:23:03.804Z,60.07
2022-07-29T10:25:31.479Z,60.35
2022-07-29T10:27:58.898Z,60.20
2022-07-29T10:30:27.535Z,59.75
2022-07-29T10:33:32.206Z,59.67
2022-07-29T10:36:43.281Z,59.92
2022-07-29T10:39:48.885Z,60.23
2022-07-29T10:42:34.181Z,60.10
2022-07-29T10:45:04.379Z,59.95
2022-07-29T10:47:31.612Z,59.96
2022-07-29T10:50:05.600Z,59.13
2022-07-29T10:52:51.160Z,58.88
2022-07-29T10:55:43.321Z,59.12
2022-07-29T10:58:26.394Z,58.65
2022-07-29T11:00:54.927Z,58.52
2022-07-29T11:07:03.999Z,58.74
2022-07-29T11:09:37.575Z,58.62
2022-07-29T11:12:37.217Z,58.97
2022-07-29T11:15:22.637Z,58.03
2022-07-29T11:17:55.005Z,57.94
2022-07-29T11:20:43.050Z,57.65
2022-07-29T11:23:33.489Z,57.22
2022-07-29T11:26:10.917Z,57.01
2022-07-29T11:31:44.016Z,56.87
2022-07-29T11:34:32.026Z,56.93
2022-07-29T11:37:14.637Z,57.58
2022-07-29T11:39:48.069Z,57.21
2022-07-29T11:42:18.102Z,55.84
2022-07-29T11:45:43.678Z,55.52
2022-07-29T11:48:29.643Z,56.26
2022-07-29T11:50:56.459Z,56.28
2022-07-29T11:53:25.368Z,56.57
2022-07-29T11:55:56.240Z,56.34
2022-07-29T11:58:25.990Z,56.27
2022-07-29T12:00:55.531Z,55.29
2022-07-29T12:06:18.061Z,55.16
2022-07-29T12:07:02.500Z,55.39
2022-07-29T12:07:03.360Z,56.61
2022-07-29T12:08:47.473Z,54.82
2022-07-29T12:11:23.498Z,54.57
2022-07-29T12:13:52.203Z,54.27
2022-07-29T12:16:25.341Z,54.14
2022-07-29T12:18:58.165Z,53.99
2022-07-29T12:21:25.593Z,53.87
2022-07-29T12:24:08.973Z,54.02
2022-07-29T12:26:36.560Z,54.16
2022-07-29T12:29:04.103Z,54.16
2022-07-29T12:31:42.303Z,54.01
2022-07-29T12:34:13.097Z,54.02
2022-07-29T12:36:40.960Z,53.84
2022-07-29T12:39:08.236Z,53.60
2022-07-29T12:41:35.779Z,53.95
2022-07-29T12:44:02.715Z,53.91
2022-07-29T12:46:29.785Z,53.87
2022-07-29T12:48:57.806Z,53.96
2022-07-29T12:51:38.969Z,53.65
2022-07-29T12:54:16.383Z,54.01
2022-07-29T12:56:45.456Z,54.32
2022-07-29T12:59:22.924Z,54.06
2022-07-29T13:01:51.862Z,54.10
2022-07-29T13:04:27.059Z,54.28
2022-07-29T13:07:05.224Z,53.56
2022-07-29T13:09:43.245Z,53.79
2022-07-29T13:12:13.025Z,53.73
2022-07-29T13:14:48.204Z,54.16
2022-07-29T13:17:18.177Z,54.38
2022-07-29T13:19:47.759Z,53.55
2022-07-29T13:22:17.182Z,53.59
2022-07-29T13:24:50.988Z,53.00
2022-07-29T13:27:18.957Z,53.20
2022-07-29T13:29:52.326Z,52.54
2022-07-29T13:32:28.279Z,52.17
2022-07-29T13:35:05.592Z,53.10
2022-07-29T13:37:35.374Z,52.97
2022-07-29T13:40:04.638Z,52.63
2022-07-29T13:42:33.429Z,51.96
2022-07-29T13:45:03.831Z,52.24
2022-07-29T13:47:32.221Z,52.17
2022-07-29T13:50:05.364Z,51.71
2022-07-29T13:52:34.458Z,51.84
2022-07-29T13:55:01.796Z,51.40
2022-07-29T13:57:28.953Z,51.50
2022-07-29T13:59:56.222Z,51.00
2022-07-29T14:02:25.320Z,51.67
2022-07-29T14:04:54.677Z,50.88
2022-07-29T14:07:22.429Z,50.53
2022-07-29T14:09:51.865Z,50.96
2022-07-29T14:12:21.181Z,50.77
2022-07-29T14:14:48.263Z,50.78
2022-07-29T14:17:16.347Z,50.28
2022-07-29T14:19:44.122Z,50.50
2022-07-29T14:22:11.154Z,50.13
2022-07-29T14:24:38.753Z,49.69
2022-07-29T14:27:06.487Z,50.32
2022-07-29T14:29:37.775Z,49.88
2022-07-29T14:32:08.463Z,49.42
2022-07-29T14:34:36.623Z,48.87
2022-07-29T14:37:06.418Z,48.09
2022-07-29T14:39:36.921Z,48.27
2022-07-29T14:42:06.701Z,48.41
2022-07-29T14:44:33.921Z,49.08
2022-07-29T14:47:08.056Z,49.05
2022-07-29T14:49:36.066Z,49.57
2022-07-29T14:52:03.649Z,48.78
2022-07-29T14:54:30.734Z,48.49
2022-07-29T14:56:58.681Z,48.14
2022-07-29T14:59:27.150Z,48.66
2022-07-29T15:01:54.417Z,49.07
2022-07-29T15:04:22.133Z,49.29
2022-07-29T15:06:49.900Z,48.39
2022-07-29T15:09:16.957Z,48.57
2022-07-29T15:11:44.046Z,48.19
2022-07-29T15:14:13.831Z,47.92
2022-07-29T15:16:43.607Z,48.38
2022-07-29T15:19:14.726Z,48.23
2022-07-29T15:21:48.381Z,48.07
2022-07-29T15:24:17.901Z,48.30
2022-07-29T15:26:48.581Z,47.71
2022-07-29T15:29:16.627Z,47.33
2022-07-29T15:31:44.537Z,47.42
2022-07-29T15:34:11.864Z,46.88
2022-07-29T15:36:54.586Z,46.80
2022-07-29T15:39:23.240Z,47.23
2022-07-29T15:41:53.814Z,47.41
2022-07-29T15:44:21.618Z,47.60
2022-07-29T15:47:04.740Z,47.49
2022-07-29T15:49:47.164Z,47.52
2022-07-29T15:52:25.806Z,47.04
2022-07-29T15:54:57.716Z,47.50
2022-07-29T15:57:25.497Z,47.66
2022-07-29T15:59:52.753Z,47.78
2022-07-29T16:02:20.069Z,47.93
2022-07-29T16:04:47.394Z,47.84
2022-07-29T16:07:16.278Z,48.07
2022-07-29T16:09:45.471Z,47.66
2022-07-29T16:12:17.994Z,47.30
2022-07-29T16:14:45.202Z,48.09
2022-07-29T16:17:14.419Z,48.69
2022-07-29T16:19:46.393Z,48.84
2022-07-29T16:22:13.513Z,48.82
2022-07-29T16:24:40.912Z,49.01
2022-07-29T16:27:08.014Z,49.00
2022-07-29T16:29:37.116Z,49.00
2022-07-29T16:32:05.344Z,49.04
2022-07-29T16:34:32.553Z,48.76
2022-07-29T16:36:59.827Z,49.09
2022-07-29T16:39:27.157Z,48.97
2022-07-29T16:41:58.295Z,49.05
2022-07-29T16:44:27.380Z,48.64
2022-07-29T16:46:56.070Z,48.52
2022-07-29T16:49:25.168Z,48.85
2022-07-29T16:51:53.829Z,49.18
2022-07-29T16:54:21.292Z,49.14
2022-07-29T16:56:48.432Z,49.66
2022-07-29T16:59:18.673Z,49.07
2022-07-29T17:01:48.692Z,49.01
2022-07-29T17:04:18.844Z,49.62
2022-07-29T17:06:46.380Z,49.99
2022-07-29T17:09:16.553Z,50.16
2022-07-29T17:11:53.508Z,49.78
2022-07-29T17:14:26.263Z,50.39
2022-07-29T17:17:00.294Z,50.61
2022-07-29T17:19:33.764Z,50.27
2022-07-29T17:22:09.506Z,50.70
2022-07-29T17:24:38.945Z,50.98
2022-07-29T17:27:07.480Z,50.99
2022-07-29T17:29:35.141Z,51.36
2022-07-29T17:32:02.294Z,51.45
2022-07-29T17:34:29.415Z,51.62
2022-07-29T17:36:56.838Z,51.57
2022-07-29T17:39:24.072Z,51.68
2022-07-29T17:41:51.656Z,52.26
2022-07-29T17:44:18.677Z,52.55
2022-07-29T17:46:46.295Z,52.93
2022-07-29T17:49:13.612Z,53.05
2022-07-29T17:51:40.623Z,53.04
2022-07-29T17:54:07.628Z,53.26
2022-07-29T17:56:34.796Z,53.56
2022-07-29T17:59:06.549Z,53.41
2022-07-29T18:01:34.119Z,53.49
2022-07-29T18:04:02.465Z,54.00
2022-07-29T18:06:29.709Z,53.92
2022-07-29T18:08:56.639Z,53.83
2022-07-29T18:11:23.799Z,53.90
2022-07-29T18:13:53.859Z,54.75
2022-07-29T18:16:21.383Z,54.43
2022-07-29T18:18:48.462Z,54.31
2022-07-29T18:21:16.245Z,55.34
2022-07-29T18:23:51.170Z,55.41
2022-07-29T18:26:18.153Z,55.86
2022-07-29T18:28:45.095Z,55.71
2022-07-29T18:31:13.602Z,55.65
2022-07-29T18:33:40.644Z,55.91
2022-07-29T18:36:11.605Z,56.35
2022-07-29T18:38:40.701Z,56.18
2022-07-29T18:41:07.697Z,56.52
2022-07-29T18:43:34.626Z,56.76
2022-07-29T18:46:02.116Z,56.89
2022-07-29T18:48:29.581Z,57.13
2022-07-29T18:50:56.561Z,57.12
2022-07-29T18:53:23.497Z,57.40
2022-07-29T18:55:51.212Z,57.17
2022-07-29T18:58:18.376Z,57.56
2022-07-29T19:00:45.905Z,58.14
2022-07-29T19:03:13.319Z,57.93
2022-07-29T19:05:40.501Z,58.14
2022-07-29T19:08:07.475Z,58.28
2022-07-29T19:10:34.419Z,58.26
2022-07-29T19:13:01.944Z,58.38
2022-07-29T19:15:29.244Z,58.84
2022-07-29T19:18:00.853Z,58.93
2022-07-29T19:20:28.631Z,59.05
2022-07-29T19:22:55.628Z,58.99
2022-07-29T19:25:23.334Z,59.01
2022-07-29T19:27:50.972Z,59.23
2022-07-29T19:30:18.615Z,59.71
2022-07-29T19:32:48.460Z,59.99
2022-07-29T19:35:25.539Z,59.88
2022-07-29T19:37:53.050Z,60.37
2022-07-29T19:40:20.562Z,60.40
2022-07-29T19:42:53.021Z,60.70
2022-07-29T19:45:21.957Z,61.04
2022-07-29T19:47:49.082Z,61.16
2022-07-29T19:50:16.808Z,61.56
2022-07-29T19:52:45.157Z,61.65
2022-07-29T19:55:12.111Z,61.81
2022-07-29T19:57:40.830Z,62.78
2022-07-29T20:00:11.261Z,63.12
2022-07-29T20:02:39.614Z,62.86
2022-07-29T20:05:07.084Z,63.48
2022-07-29T20:07:34.082Z,63.37
2022-07-29T20:10:01.064Z,63.98
2022-07-29T20:12:28.117Z,64.22
2022-07-29T20:14:55.090Z,64.57
2022-07-29T20:17:24.970Z,64.87
2022-07-29T20:19:52.981Z,64.84
2022-07-29T20:22:21.558Z,64.72
2022-07-29T20:24:48.986Z,65.50
2022-07-29T20:27:16.207Z,65.72
2022-07-29T20:29:43.294Z,65.75
2022-07-29T20:32:12.070Z,65.67
2022-07-29T20:34:41.546Z,65.83
2022-07-29T20:37:13.471Z,65.93
2022-07-29T20:39:42.877Z,66.28
2022-07-29T20:42:09.835Z,66.71
2022-07-29T20:44:37.022Z,66.18
2022-07-29T20:47:04.078Z,67.10
2022-07-29T20:49:31.054Z,67.37
2022-07-29T20:51:58.213Z,67.09
2022-07-29T20:54:25.376Z,67.11
2022-07-29T20:56:53.228Z,67.53
2022-07-29T20:59:20.468Z,67.28
2022-07-29T21:01:47.555Z,67.73
2022-07-29T21:04:14.964Z,67.88
2022-07-29T21:06:42.130Z,68.18
2022-07-29T21:09:09.048Z,67.95
2022-07-29T21:11:44.292Z,68.24
2022-07-29T21:14:30.753Z,67.90
2022-07-29T21:17:01.822Z,67.79
2022-07-29T21:19:29.221Z,67.55
2022-07-29T21:21:56.359Z,67.95
2022-07-29T21:24:23.361Z,67.87
2022-07-29T21:27:18.372Z,68.33
2022-07-29T21:29:38.240Z,67.82
2022-07-29T21:32:05.593Z,68.32
2022-07-29T21:34:32.616Z,67.96
2022-07-29T21:37:00.497Z,68.35
2022-07-29T21:39:28.117Z,68.16
2022-07-29T21:41:55.262Z,68.46
2022-07-29T21:44:22.442Z,68.48
2022-07-29T21:46:49.912Z,68.88
2022-07-29T21:49:16.995Z,68.49
2022-07-29T21:51:44.196Z,69.12
2022-07-29T21:54:11.747Z,69.10
2022-07-29T21:56:38.697Z,68.52
2022-07-29T21:59:05.944Z,68.72
2022-07-29T22:01:39.595Z,68.97
2022-07-29T22:04:07.242Z,68.90
2022-07-29T22:06:34.661Z,68.89
2022-07-29T22:09:01.621Z,69.30
2022-07-29T22:11:28.789Z,69.36
2022-07-29T22:13:55.731Z,69.77
2022-07-29T22:16:22.755Z,69.35
2022-07-29T22:18:50.016Z,69.34
2022-07-29T22:21:17.202Z,69.95
2022-07-29T22:23:44.417Z,69.76
2022-07-29T22:26:11.669Z,69.59
2022-07-29T22:28:38.632Z,70.11
2022-07-29T22:31:07.660Z,69.77
2022-07-29T22:33:34.916Z,69.87
2022-07-29T22:36:01.883Z,69.61
2022-07-29T22:38:28.836Z,69.80
2022-07-29T22:41:01.551Z,70.18
2022-07-29T22:43:30.277Z,70.15
2022-07-29T22:45:57.668Z,70.27
2022-07-29T22:48:24.714Z,69.91
2022-07-29T22:50:51.797Z,70.08
2022-07-29T22:53:18.951Z,69.72
2022-07-29T22:55:46.256Z,70.29
2022-07-29T22:58:13.365Z,70.14
2022-07-29T23:00:40.417Z,69.57
2022-07-29T23:03:07.354Z,69.88
2022-07-29T23:05:34.478Z,69.49
2022-07-29T23:08:01.786Z,69.44
2022-07-29T23:10:28.772Z,69.98
2022-07-29T23:12:55.701Z,69.78
2022-07-29T23:15:23.244Z,70.05
2022-07-29T23:17:50.179Z,69.91
2022-07-29T23:20:17.146Z,70.15
2022-07-29T23:22:44.727Z,70.41
2022-07-29T23:25:11.890Z,70.06
2022-07-29T23:27:38.813Z,70.18
2022-07-29T23:30:06.376Z,69.80
2022-07-29T23:32:33.341Z,70.00
2022-07-29T23:35:00.559Z,70.53
2022-07-29T23:37:28.287Z,70.07
2022-07-29T23:39:55.489Z,70.17
2022-07-29T23:42:22.698Z,70.05
2022-07-29T23:44:50.000Z,70.58
2022-07-29T23:47:17.183Z,70.23
2022-07-29T23:49:44.600Z,70.42
2022-07-29T23:52:11.865Z,70.40
2022-07-29T23:54:38.868Z,70.84
2022-07-29T23:57:05.918Z,70.72
2022-07-29T23:59:33.278Z,71.34
